Time;durP1;ratioP1;P1;durP2;ratioP2;P2;SDS_P1;SDS_P2;PMS_P1;PMS_P2;Temp;Humidity;BMP_temperature;BMP_pressure;BME280_temperature;BME280_humidity;BME280_pressure;Samples;Min_cycle;Max_cycle;Signal;HPM_P1;HPM_P2
2021/07/06 00:00:13;;;;;;;7.00;1.40;;;;;;;;;;4995662;28;20030;-59
2021/07/06 00:02:39;;;;;;;13.73;3.30;;;;;;;;;;5003478;28;20031;-59
2021/07/06 00:05:06;;;;;;;5.40;2.13;;;;;;;;;;4994350;28;20021;-59
2021/07/06 00:07:32;;;;;;;8.52;2.80;;;;;;;;;;4997373;28;20037;-60
2021/07/06 00:09:59;;;;;;;9.07;3.30;;;;;;;;;;4997445;28;20112;-59
2021/07/06 00:12:25;;;;;;;8.98;2.65;;;;;;;;;;4996505;28;20077;-64
2021/07/06 00:14:51;;;;;;;9.23;2.60;;;;;;;;;;4995847;28;20677;-65
2021/07/06 00:17:17;;;;;;;7.47;2.35;;;;;;;;;;4994523;28;20105;-65
2021/07/06 00:19:42;;;;;;;8.27;2.45;;;;;;;;;;4997162;28;20805;-65
2021/07/06 00:22:08;;;;;;;4.60;2.13;;;;;;;;;;4988787;28;20231;-64
2021/07/06 00:24:37;;;;;;;7.20;2.40;;;;;;;;;;4995005;28;20449;-64
2021/07/06 00:27:04;;;;;;;6.97;2.25;;;;;;;;;;4994668;28;20158;-65
2021/07/06 00:29:29;;;;;;;5.57;2.33;;;;;;;;;;4989390;28;20066;-65
2021/07/06 00:31:55;;;;;;;11.00;2.30;;;;;;;;;;4995452;28;20475;-65
2021/07/06 00:34:21;;;;;;;7.35;2.00;;;;;;;;;;4997085;28;20065;-65
2021/07/06 00:36:46;;;;;;;10.40;2.08;;;;;;;;;;4993700;28;20061;-64
2021/07/06 00:39:12;;;;;;;7.40;2.00;;;;;;;;;;4998708;28;20044;-65
2021/07/06 00:41:39;;;;;;;8.13;2.13;;;;;;;;;;4994941;28;20037;-65
2021/07/06 00:44:04;;;;;;;4.65;1.40;;;;;;;;;;4995170;28;20053;-65
2021/07/06 00:46:31;;;;;;;4.95;1.80;;;;;;;;;;4992259;28;20493;-64
2021/07/06 00:48:56;;;;;;;5.40;1.73;;;;;;;;;;4996990;28;20238;-65
2021/07/06 00:51:22;;;;;;;6.28;1.92;;;;;;;;;;4992840;28;20081;-64
2021/07/06 00:53:49;;;;;;;5.75;1.80;;;;;;;;;;4993915;28;20036;-65
2021/07/06 00:56:14;;;;;;;16.73;3.67;;;;;;;;;;4990033;28;20034;-65
2021/07/06 00:58:48;;;;;;;11.25;2.42;;;;;;;;;;4991234;28;20579;-65
2021/07/06 01:01:14;;;;;;;6.93;1.80;;;;;;;;;;5008775;28;20124;-64
2021/07/06 01:03:40;;;;;;;4.45;1.73;;;;;;;;;;5018218;28;20150;-64
2021/07/06 01:06:05;;;;;;;6.28;1.63;;;;;;;;;;5014594;28;20108;-65
2021/07/06 01:08:31;;;;;;;5.25;1.60;;;;;;;;;;5013232;28;20036;-65
2021/07/06 01:10:58;;;;;;;5.60;1.80;;;;;;;;;;5016087;28;20443;-63
2021/07/06 01:13:24;;;;;;;6.65;1.67;;;;;;;;;;5014297;28;20034;-63
2021/07/06 01:15:49;;;;;;;6.30;1.70;;;;;;;;;;5017089;28;20037;-64
2021/07/06 01:18:17;;;;;;;7.53;1.88;;;;;;;;;;5013879;28;20547;-65
2021/07/06 01:20:55;;;;;;;8.88;2.03;;;;;;;;;;5014902;28;20454;-64
2021/07/06 01:23:26;;;;;;;4.13;1.75;;;;;;;;;;5009523;28;20053;-64
2021/07/06 01:25:53;;;;;;;2.83;1.98;;;;;;;;;;5013187;28;20172;-64
2021/07/06 01:28:19;;;;;;;6.85;2.00;;;;;;;;;;5008251;28;20071;-64
2021/07/06 01:30:44;;;;;;;6.35;1.67;;;;;;;;;;5011147;28;20076;-64
2021/07/06 01:33:22;;;;;;;5.78;1.90;;;;;;;;;;5011906;28;20510;-64
2021/07/06 01:35:49;;;;;;;4.70;1.92;;;;;;;;;;5022268;28;20421;-64
2021/07/06 01:38:15;;;;;;;9.40;2.00;;;;;;;;;;5012472;28;20060;-64
2021/07/06 01:40:40;;;;;;;7.63;1.85;;;;;;;;;;5012614;28;20102;-63
2021/07/06 01:43:06;;;;;;;3.78;1.70;;;;;;;;;;5016292;28;20417;-64
2021/07/06 01:45:33;;;;;;;5.65;1.80;;;;;;;;;;5012642;28;20103;-64
2021/07/06 01:48:00;;;;;;;4.25;2.13;;;;;;;;;;5016640;28;20033;-64
2021/07/06 01:50:32;;;;;;;5.75;2.10;;;;;;;;;;5010131;28;20030;-65
2021/07/06 01:53:02;;;;;;;8.23;2.25;;;;;;;;;;5014189;28;20035;-64
2021/07/06 01:55:33;;;;;;;3.42;1.83;;;;;;;;;;5017311;28;20034;-64
2021/07/06 01:58:01;;;;;;;7.53;2.03;;;;;;;;;;5014792;28;20033;-64
2021/07/06 02:00:29;;;;;;;3.72;1.80;;;;;;;;;;5017597;28;20636;-65
2021/07/06 02:03:02;;;;;;;7.07;1.95;;;;;;;;;;5013919;28;20033;-64
2021/07/06 02:05:30;;;;;;;6.78;1.95;;;;;;;;;;5012486;28;20044;-64
2021/07/06 02:07:57;;;;;;;4.60;1.95;;;;;;;;;;5013709;28;20040;-64
2021/07/06 02:10:24;;;;;;;6.72;1.75;;;;;;;;;;5015389;28;20033;-65
2021/07/06 02:12:50;;;;;;;4.18;1.77;;;;;;;;;;5011190;28;20036;-65
2021/07/06 02:15:17;;;;;;;4.47;1.67;;;;;;;;;;5014692;28;20037;-65
2021/07/06 02:17:44;;;;;;;5.55;3.03;;;;;;;;;;5013723;28;20030;-63
2021/07/06 02:20:11;;;;;;;3.55;1.65;;;;;;;;;;5009623;28;20335;-63
2021/07/06 02:22:38;;;;;;;3.42;1.98;;;;;;;;;;5014954;28;20084;-64
2021/07/06 02:25:08;;;;;;;4.82;1.80;;;;;;;;;;5017242;28;20033;-65
2021/07/06 02:27:35;;;;;;;9.70;1.85;;;;;;;;;;5014345;28;20057;-64
2021/07/06 02:30:00;;;;;;;4.07;1.98;;;;;;;;;;5020306;28;20068;-65
2021/07/06 02:32:26;;;;;;;5.28;2.10;;;;;;;;;;5016627;28;20065;-64
2021/07/06 02:34:51;;;;;;;2.05;1.60;;;;;;;;;;5012907;28;20694;-65
2021/07/06 02:37:17;;;;;;;4.43;1.70;;;;;;;;;;5015124;28;20034;-64
2021/07/06 02:39:43;;;;;;;5.22;1.85;;;;;;;;;;5016323;28;20575;-64
2021/07/06 02:42:09;;;;;;;4.00;1.52;;;;;;;;;;5009044;28;20026;-65
2021/07/06 02:44:34;;;;;;;4.95;2.08;;;;;;;;;;5016065;28;20431;-65
2021/07/06 02:47:00;;;;;;;2.70;1.95;;;;;;;;;;5009777;28;20087;-64
2021/07/06 02:49:25;;;;;;;7.43;2.10;;;;;;;;;;5017485;28;20116;-64
2021/07/06 02:51:51;;;;;;;5.70;1.73;;;;;;;;;;5010440;28;20038;-64
2021/07/06 02:54:16;;;;;;;4.97;2.00;;;;;;;;;;5015605;28;20041;-64
2021/07/06 02:56:42;;;;;;;3.67;1.80;;;;;;;;;;5017397;28;20551;-63
2021/07/06 02:59:07;;;;;;;7.88;2.60;;;;;;;;;;5020691;28;20058;-64
2021/07/06 03:01:33;;;;;;;5.22;2.75;;;;;;;;;;5016563;28;20460;-63
2021/07/06 03:03:58;;;;;;;7.30;2.47;;;;;;;;;;5016760;28;20443;-64
2021/07/06 03:06:27;;;;;;;3.95;2.08;;;;;;;;;;5012329;28;20169;-64
2021/07/06 03:08:55;;;;;;;3.05;2.00;;;;;;;;;;5018940;28;20510;-64
2021/07/06 03:11:21;;;;;;;4.07;2.53;;;;;;;;;;5017741;28;20041;-63
2021/07/06 03:13:46;;;;;;;4.05;2.63;;;;;;;;;;5020415;28;20030;-65
2021/07/06 03:16:12;;;;;;;2.85;2.45;;;;;;;;;;5015233;28;20124;-64
2021/07/06 03:18:37;;;;;;;3.10;2.50;;;;;;;;;;5019106;28;20124;-64
2021/07/06 03:21:03;;;;;;;7.32;2.60;;;;;;;;;;5017291;28;20038;-63
2021/07/06 03:23:28;;;;;;;8.93;2.47;;;;;;;;;;5021642;28;20907;-64
2021/07/06 03:25:54;;;;;;;6.72;2.55;;;;;;;;;;5015965;28;20484;-64
2021/07/06 03:28:20;;;;;;;4.75;2.42;;;;;;;;;;5015652;28;20103;-64
2021/07/06 03:30:45;;;;;;;4.53;2.42;;;;;;;;;;5022103;28;20033;-65
2021/07/06 03:33:11;;;;;;;3.42;2.38;;;;;;;;;;5020809;28;20029;-65
2021/07/06 03:35:37;;;;;;;4.47;2.53;;;;;;;;;;5014811;28;20424;-65
2021/07/06 03:38:03;;;;;;;7.93;2.78;;;;;;;;;;5017036;28;20036;-65
2021/07/06 03:40:30;;;;;;;4.32;2.05;;;;;;;;;;5018130;28;20026;-65
2021/07/06 03:42:56;;;;;;;4.43;2.15;;;;;;;;;;5017969;28;20025;-64
2021/07/06 03:45:22;;;;;;;5.75;2.45;;;;;;;;;;5016347;28;20040;-64
2021/07/06 03:47:49;;;;;;;4.30;2.40;;;;;;;;;;5017383;28;20038;-63
2021/07/06 03:50:20;;;;;;;2.72;2.05;;;;;;;;;;5010667;28;20556;-64
2021/07/06 03:52:49;;;;;;;2.20;1.98;;;;;;;;;;5015153;28;20033;-64
2021/07/06 03:55:16;;;;;;;2.85;2.22;;;;;;;;;;5016637;28;20061;-64
2021/07/06 03:57:43;;;;;;;5.03;2.30;;;;;;;;;;5013796;28;20258;-64
2021/07/06 04:00:11;;;;;;;3.30;2.25;;;;;;;;;;5015307;28;20043;-63
2021/07/06 04:02:38;;;;;;;4.50;2.85;;;;;;;;;;5016388;28;20025;-64
2021/07/06 04:05:09;;;;;;;3.70;2.75;;;;;;;;;;5016963;28;20041;-64
2021/07/06 04:07:35;;;;;;;4.15;2.50;;;;;;;;;;5013941;28;20080;-64
2021/07/06 04:10:03;;;;;;;3.15;2.33;;;;;;;;;;5024145;28;20031;-63
2021/07/06 04:12:28;;;;;;;8.70;5.22;;;;;;;;;;5018823;28;20111;-63
2021/07/06 04:14:53;;;;;;;7.50;3.70;;;;;;;;;;5010317;28;20065;-64
2021/07/06 04:17:19;;;;;;;8.05;3.55;;;;;;;;;;5015094;28;20037;-63
2021/07/06 04:19:45;;;;;;;6.07;3.80;;;;;;;;;;5021451;28;20044;-63
2021/07/06 04:22:10;;;;;;;8.45;3.38;;;;;;;;;;5013677;28;20089;-65
2021/07/06 04:24:36;;;;;;;9.68;3.38;;;;;;;;;;5013787;28;20042;-65
2021/07/06 04:27:02;;;;;;;5.65;3.30;;;;;;;;;;5010873;28;20032;-65
2021/07/06 04:29:28;;;;;;;7.30;3.70;;;;;;;;;;5018824;28;20538;-64
2021/07/06 04:31:54;;;;;;;5.55;2.97;;;;;;;;;;5017148;28;20067;-65
2021/07/06 04:34:21;;;;;;;6.05;3.10;;;;;;;;;;5017430;28;20049;-65
2021/07/06 04:36:46;;;;;;;7.53;3.65;;;;;;;;;;5012210;28;20040;-65
2021/07/06 04:39:12;;;;;;;7.68;3.20;;;;;;;;;;5015196;28;20346;-65
2021/07/06 04:41:38;;;;;;;4.28;3.00;;;;;;;;;;5013348;28;20727;-65
2021/07/06 04:44:03;;;;;;;7.22;3.35;;;;;;;;;;5015801;28;20026;-64
2021/07/06 04:46:29;;;;;;;5.10;3.35;;;;;;;;;;5022026;28;20037;-65
2021/07/06 04:48:55;;;;;;;7.03;3.30;;;;;;;;;;5015009;28;20040;-65
2021/07/06 04:51:20;;;;;;;4.07;3.45;;;;;;;;;;5017503;28;20034;-64
2021/07/06 04:53:46;;;;;;;7.53;3.30;;;;;;;;;;5016195;28;20025;-65
2021/07/06 04:56:11;;;;;;;7.60;3.55;;;;;;;;;;5016842;28;20191;-65
2021/07/06 04:58:37;;;;;;;5.55;3.10;;;;;;;;;;5016302;28;20033;-65
2021/07/06 05:01:04;;;;;;;5.68;3.38;;;;;;;;;;5016052;28;20045;-64
2021/07/06 05:03:31;;;;;;;7.38;3.00;;;;;;;;;;5015887;28;20030;-63
2021/07/06 05:05:57;;;;;;;5.47;3.63;;;;;;;;;;5015012;28;20147;-64
2021/07/06 05:08:23;;;;;;;6.20;3.20;;;;;;;;;;5013648;28;20085;-64
2021/07/06 05:10:50;;;;;;;5.40;2.60;;;;;;;;;;5016567;28;20064;-65
2021/07/06 05:13:15;;;;;;;5.10;2.90;;;;;;;;;;5014660;28;20034;-64
2021/07/06 05:15:41;;;;;;;4.28;2.63;;;;;;;;;;5019684;28;20096;-64
2021/07/06 05:18:06;;;;;;;8.52;3.72;;;;;;;;;;5014409;28;20100;-64
2021/07/06 05:20:32;;;;;;;4.72;2.40;;;;;;;;;;5015071;28;20429;-65
2021/07/06 05:22:57;;;;;;;6.13;2.50;;;;;;;;;;5019475;28;20033;-65
2021/07/06 05:25:23;;;;;;;5.25;2.92;;;;;;;;;;5016250;28;20142;-64
2021/07/06 05:27:49;;;;;;;8.50;2.45;;;;;;;;;;5012135;28;20083;-65
2021/07/06 05:30:15;;;;;;;6.75;2.40;;;;;;;;;;5010397;28;20049;-64
2021/07/06 05:32:40;;;;;;;6.57;2.58;;;;;;;;;;5016346;28;20565;-64
2021/07/06 05:35:10;;;;;;;5.78;2.88;;;;;;;;;;5017718;28;20112;-63
2021/07/06 05:37:37;;;;;;;5.63;2.70;;;;;;;;;;5013303;28;20038;-63
2021/07/06 05:40:07;;;;;;;9.05;2.83;;;;;;;;;;5013995;28;20038;-65
2021/07/06 05:42:37;;;;;;;5.00;2.88;;;;;;;;;;5015698;28;20087;-64
2021/07/06 05:45:05;;;;;;;9.30;2.97;;;;;;;;;;5011984;28;20029;-64
2021/07/06 05:47:34;;;;;;;7.47;2.10;;;;;;;;;;5017772;28;20029;-64
2021/07/06 05:49:59;;;;;;;4.68;3.00;;;;;;;;;;5014306;28;20128;-65
2021/07/06 05:52:27;;;;;;;6.32;2.80;;;;;;;;;;5018737;28;20136;-64
2021/07/06 05:54:53;;;;;;;4.80;2.25;;;;;;;;;;5021433;28;20034;-62
2021/07/06 05:57:18;;;;;;;3.70;2.28;;;;;;;;;;5014186;28;20048;-64
2021/07/06 05:59:44;;;;;;;3.63;1.77;;;;;;;;;;5019543;28;20036;-64
2021/07/06 06:02:09;;;;;;;3.88;1.33;;;;;;;;;;5011483;28;20072;-64
2021/07/06 06:04:34;;;;;;;4.05;1.50;;;;;;;;;;5010311;28;20029;-64
2021/07/06 06:07:00;;;;;;;1.33;1.10;;;;;;;;;;5016722;28;20135;-64
2021/07/06 06:09:25;;;;;;;10.35;1.00;;;;;;;;;;5013679;28;20053;-64
2021/07/06 06:11:51;;;;;;;2.72;0.90;;;;;;;;;;5022248;28;20641;-64
2021/07/06 06:14:16;;;;;;;8.57;1.67;;;;;;;;;;5020509;28;20117;-65
2021/07/06 06:16:42;;;;;;;2.80;1.00;;;;;;;;;;5023527;28;20040;-64
2021/07/06 06:19:07;;;;;;;1.77;1.10;;;;;;;;;;5013716;28;20044;-64
2021/07/06 06:21:33;;;;;;;4.13;1.27;;;;;;;;;;5017485;28;20598;-65
2021/07/06 06:23:59;;;;;;;6.70;1.10;;;;;;;;;;5014770;28;20064;-65
2021/07/06 06:26:25;;;;;;;5.45;1.10;;;;;;;;;;5019646;28;20040;-64
2021/07/06 06:28:50;;;;;;;3.83;0.98;;;;;;;;;;5015022;28;20038;-64
2021/07/06 06:31:17;;;;;;;2.88;0.90;;;;;;;;;;5019579;28;20407;-64
2021/07/06 06:33:43;;;;;;;7.00;1.50;;;;;;;;;;5015583;28;20030;-63
2021/07/06 06:36:08;;;;;;;2.05;0.93;;;;;;;;;;5015691;28;20043;-64
2021/07/06 06:38:34;;;;;;;2.92;1.20;;;;;;;;;;5016172;28;20021;-64
2021/07/06 06:40:59;;;;;;;4.40;2.10;;;;;;;;;;5015933;28;20519;-65
2021/07/06 06:43:25;;;;;;;4.60;2.15;;;;;;;;;;5018050;28;20033;-60
2021/07/06 06:45:50;;;;;;;7.22;1.83;;;;;;;;;;5020186;28;20033;-58
2021/07/06 06:48:16;;;;;;;3.80;0.82;;;;;;;;;;5020534;28;20500;-59
2021/07/06 06:50:41;;;;;;;2.13;0.77;;;;;;;;;;5016365;28;20110;-59
2021/07/06 06:53:07;;;;;;;5.25;0.60;;;;;;;;;;5012704;28;20124;-59
2021/07/06 06:55:33;;;;;;;1.05;0.50;;;;;;;;;;5021189;28;20554;-58
2021/07/06 06:57:58;;;;;;;1.00;0.40;;;;;;;;;;5019313;28;20029;-60
2021/07/06 07:00:24;;;;;;;1.40;0.57;;;;;;;;;;5019556;28;20042;-59
2021/07/06 07:02:50;;;;;;;2.10;0.50;;;;;;;;;;5021490;28;20063;-58
2021/07/06 07:05:16;;;;;;;1.60;0.50;;;;;;;;;;5019195;28;20242;-61
2021/07/06 07:07:43;;;;;;;2.67;0.45;;;;;;;;;;5019589;28;20033;-60
2021/07/06 07:10:13;;;;;;;1.65;0.35;;;;;;;;;;5016993;28;20380;-59
2021/07/06 07:12:40;;;;;;;2.45;0.40;;;;;;;;;;5019351;28;20502;-64
2021/07/06 07:15:11;;;;;;;2.63;0.68;;;;;;;;;;5010347;28;20049;-65
2021/07/06 07:17:37;;;;;;;6.45;0.47;;;;;;;;;;5012585;28;20204;-64
2021/07/06 07:20:07;;;;;;;2.35;0.43;;;;;;;;;;5008760;28;20039;-65
2021/07/06 07:22:32;;;;;;;2.70;0.50;;;;;;;;;;5011486;28;20036;-65
2021/07/06 07:24:58;;;;;;;0.85;0.47;;;;;;;;;;5013889;28;20058;-64
2021/07/06 07:27:23;;;;;;;1.05;0.38;;;;;;;;;;5016196;28;20032;-64
2021/07/06 07:29:49;;;;;;;3.63;0.65;;;;;;;;;;5018912;28;20048;-64
2021/07/06 07:32:15;;;;;;;0.85;0.30;;;;;;;;;;5016015;28;20439;-64
2021/07/06 07:34:42;;;;;;;2.30;0.43;;;;;;;;;;5019927;28;20501;-65
2021/07/06 07:37:09;;;;;;;1.88;0.55;;;;;;;;;;5021649;28;20570;-65
2021/07/06 07:39:34;;;;;;;1.58;0.50;;;;;;;;;;5014100;28;20025;-64
2021/07/06 07:42:03;;;;;;;1.30;0.40;;;;;;;;;;5021404;28;20032;-64
2021/07/06 07:44:29;;;;;;;1.38;0.50;;;;;;;;;;5019406;28;20158;-65
2021/07/06 07:46:54;;;;;;;1.00;0.40;;;;;;;;;;5018518;28;20041;-64
2021/07/06 07:49:20;;;;;;;0.30;0.30;;;;;;;;;;5020031;28;20048;-64
2021/07/06 07:51:45;;;;;;;2.75;0.40;;;;;;;;;;5014010;28;20500;-65
2021/07/06 07:54:11;;;;;;;1.23;0.60;;;;;;;;;;5022067;28;20025;-64
2021/07/06 07:56:36;;;;;;;0.60;0.50;;;;;;;;;;5021616;28;20029;-64
2021/07/06 07:59:02;;;;;;;2.63;0.73;;;;;;;;;;5018818;28;20036;-65
2021/07/06 08:01:28;;;;;;;1.48;0.70;;;;;;;;;;5014471;28;20034;-65
2021/07/06 08:03:53;;;;;;;3.55;0.63;;;;;;;;;;5023370;28;20033;-65
2021/07/06 08:06:19;;;;;;;1.35;0.85;;;;;;;;;;5014484;28;20311;-64
2021/07/06 08:08:44;;;;;;;2.25;0.77;;;;;;;;;;5022253;28;20026;-64
2021/07/06 08:11:10;;;;;;;4.15;0.50;;;;;;;;;;5021935;28;20068;-64
2021/07/06 08:13:35;;;;;;;2.03;0.65;;;;;;;;;;5022472;28;20669;-64
2021/07/06 08:16:01;;;;;;;2.10;0.65;;;;;;;;;;5022780;28;20036;-65
2021/07/06 08:18:27;;;;;;;1.25;0.40;;;;;;;;;;5014350;28;20127;-64
2021/07/06 08:20:52;;;;;;;3.50;0.55;;;;;;;;;;5017545;28;20499;-64
2021/07/06 08:23:18;;;;;;;2.83;0.80;;;;;;;;;;5015394;28;20072;-65
2021/07/06 08:25:45;;;;;;;2.50;0.60;;;;;;;;;;5019190;28;20211;-64
2021/07/06 08:28:10;;;;;;;1.95;0.57;;;;;;;;;;5014021;28;20392;-64
2021/07/06 08:30:36;;;;;;;1.15;0.30;;;;;;;;;;5016164;28;20026;-65
2021/07/06 08:33:02;;;;;;;0.50;0.40;;;;;;;;;;5024374;28;20033;-65
2021/07/06 08:35:27;;;;;;;0.88;0.32;;;;;;;;;;5020321;28;20077;-64
2021/07/06 08:37:53;;;;;;;2.95;0.35;;;;;;;;;;5021692;28;20029;-65
2021/07/06 08:40:18;;;;;;;1.90;0.40;;;;;;;;;;5012678;28;20030;-65
2021/07/06 08:42:44;;;;;;;1.65;0.40;;;;;;;;;;5019565;28;20743;-64
2021/07/06 08:45:11;;;;;;;2.78;0.60;;;;;;;;;;5015309;28;20473;-65
2021/07/06 08:47:38;;;;;;;0.98;0.40;;;;;;;;;;5016829;28;20035;-64
2021/07/06 08:50:06;;;;;;;1.58;0.35;;;;;;;;;;5011717;28;20124;-64
2021/07/06 08:52:36;;;;;;;1.73;0.30;;;;;;;;;;5017719;28;20036;-64
2021/07/06 08:55:02;;;;;;;0.60;0.35;;;;;;;;;;5019516;28;20102;-65
2021/07/06 08:57:27;;;;;;;0.55;0.30;;;;;;;;;;5021832;28;20037;-65
2021/07/06 08:59:53;;;;;;;1.67;0.40;;;;;;;;;;5015338;28;20025;-64
2021/07/06 09:02:22;;;;;;;0.38;0.20;;;;;;;;;;5017616;28;20033;-64
2021/07/06 09:04:50;;;;;;;1.05;0.35;;;;;;;;;;5018714;28;20034;-65
2021/07/06 09:07:17;;;;;;;0.45;0.30;;;;;;;;;;5012696;28;20029;-64
2021/07/06 09:09:43;;;;;;;1.02;0.40;;;;;;;;;;5010752;28;20038;-65
2021/07/06 09:12:11;;;;;;;3.38;0.30;;;;;;;;;;5018833;28;20066;-63
2021/07/06 09:14:40;;;;;;;2.10;0.20;;;;;;;;;;5017907;28;20034;-59
2021/07/06 09:17:14;;;;;;;0.80;0.30;;;;;;;;;;5010337;28;20042;-59
2021/07/06 09:19:42;;;;;;;0.40;0.30;;;;;;;;;;5012174;28;20046;-60
2021/07/06 09:22:13;;;;;;;1.08;0.30;;;;;;;;;;5019026;28;20507;-59
2021/07/06 09:24:41;;;;;;;0.50;0.20;;;;;;;;;;5015807;28;20585;-59
2021/07/06 09:27:33;;;;;;;0.45;0.20;;;;;;;;;;5019175;28;20038;-58
2021/07/06 09:30:13;;;;;;;0.25;0.10;;;;;;;;;;5025819;28;20500;-58
2021/07/06 09:32:41;;;;;;;0.73;0.20;;;;;;;;;;5020903;28;20456;-59
2021/07/06 09:35:15;;;;;;;0.20;0.20;;;;;;;;;;5025744;28;20029;-58
2021/07/06 09:37:54;;;;;;;0.20;0.20;;;;;;;;;;5021301;28;20053;-59
2021/07/06 09:40:39;;;;;;;0.20;0.20;;;;;;;;;;5017747;28;20021;-59
2021/07/06 09:43:26;;;;;;;0.10;0.10;;;;;;;;;;5017830;28;20049;-59
2021/07/06 09:45:54;;;;;;;0.70;0.10;;;;;;;;;;5019938;28;20099;-59
2021/07/06 09:48:20;;;;;;;0.20;0.20;;;;;;;;;;5015381;28;20215;-59
2021/07/06 09:50:45;;;;;;;0.10;0.10;;;;;;;;;;5020363;28;20459;-59
2021/07/06 09:53:28;;;;;;;0.13;0.10;;;;;;;;;;5019343;28;20025;-65
2021/07/06 09:55:55;;;;;;;0.30;0.15;;;;;;;;;;5016630;28;20397;-65
2021/07/06 09:58:21;;;;;;;0.10;0.10;;;;;;;;;;5018232;28;20160;-65
2021/07/06 10:00:46;;;;;;;0.10;0.10;;;;;;;;;;5022818;28;20499;-64
2021/07/06 10:03:12;;;;;;;0.10;0.10;;;;;;;;;;5023557;28;20090;-65
2021/07/06 10:05:38;;;;;;;0.25;0.20;;;;;;;;;;5016347;28;20026;-64
2021/07/06 10:08:05;;;;;;;0.40;0.20;;;;;;;;;;5013578;28;20030;-64
2021/07/06 10:10:31;;;;;;;0.10;0.10;;;;;;;;;;5018363;28;20442;-64
2021/07/06 10:12:56;;;;;;;0.43;0.30;;;;;;;;;;5026537;28;20110;-64
2021/07/06 10:15:23;;;;;;;0.25;0.10;;;;;;;;;;5023849;28;20546;-64
2021/07/06 10:17:51;;;;;;;0.10;0.10;;;;;;;;;;5017324;28;20030;-64
2021/07/06 10:20:21;;;;;;;0.32;0.10;;;;;;;;;;5022593;28;20029;-64
2021/07/06 10:22:48;;;;;;;0.98;0.20;;;;;;;;;;5013028;28;20079;-64
2021/07/06 10:25:14;;;;;;;0.15;0.10;;;;;;;;;;5015823;28;20488;-65
2021/07/06 10:27:50;;;;;;;2.45;0.30;;;;;;;;;;5011944;28;20115;-64
2021/07/06 10:30:23;;;;;;;1.13;0.20;;;;;;;;;;5017785;28;20025;-65
2021/07/06 10:32:52;;;;;;;0.30;0.20;;;;;;;;;;5014793;28;20038;-65
2021/07/06 10:35:36;;;;;;;0.32;0.25;;;;;;;;;;5016577;28;20030;-64
2021/07/06 10:38:48;;;;;;;0.20;0.20;;;;;;;;;;5020793;28;20036;-64
2021/07/06 10:41:13;;;;;;;0.20;0.20;;;;;;;;;;5010960;28;20045;-64
2021/07/06 10:43:42;;;;;;;0.20;0.20;;;;;;;;;;5023659;28;20029;-64
2021/07/06 10:46:15;;;;;;;0.20;0.20;;;;;;;;;;5016149;28;20018;-65
2021/07/06 10:48:44;;;;;;;0.20;0.20;;;;;;;;;;5018955;28;20546;-64
2021/07/06 10:51:35;;;;;;;0.68;0.20;;;;;;;;;;5009836;28;20057;-65
2021/07/06 10:54:19;;;;;;;0.30;0.30;;;;;;;;;;5017042;28;20130;-64
2021/07/06 10:56:53;;;;;;;0.10;0.10;;;;;;;;;;5022104;28;20482;-65
2021/07/06 10:59:31;;;;;;;1.58;0.20;;;;;;;;;;5017695;28;20412;-66
2021/07/06 11:02:01;;;;;;;0.20;0.20;;;;;;;;;;5017864;28;20027;-64
2021/07/06 11:05:12;;;;;;;0.30;0.20;;;;;;;;;;5019833;28;20026;-63
2021/07/06 11:07:30;;;;;;;0.30;0.30;;;;;;;;;;5012920;28;20104;-64
2021/07/06 11:09:55;;;;;;;0.85;0.30;;;;;;;;;;5012959;28;20060;-64
2021/07/06 11:12:23;;;;;;;0.30;0.30;;;;;;;;;;5021847;28;20037;-64
2021/07/06 11:14:49;;;;;;;2.55;0.38;;;;;;;;;;5022297;28;20065;-64
2021/07/06 11:17:37;;;;;;;1.65;0.30;;;;;;;;;;5017324;28;20152;-64
2021/07/06 11:20:31;;;;;;;0.35;0.30;;;;;;;;;;5017799;28;20034;-64
2021/07/06 11:22:57;;;;;;;0.47;0.40;;;;;;;;;;5019883;28;20519;-64
2021/07/06 11:25:24;;;;;;;0.43;0.22;;;;;;;;;;5019735;28;20045;-64
2021/07/06 11:27:56;;;;;;;0.82;0.20;;;;;;;;;;5019320;28;20034;-64
2021/07/06 11:30:50;;;;;;;0.25;0.25;;;;;;;;;;5016605;28;20034;-64
2021/07/06 11:33:30;;;;;;;0.32;0.30;;;;;;;;;;5017428;28;20492;-63
2021/07/06 11:35:58;;;;;;;0.30;0.30;;;;;;;;;;5024126;28;20084;-64
2021/07/06 11:38:29;;;;;;;1.65;0.40;;;;;;;;;;5020454;28;20294;-64
2021/07/06 11:40:57;;;;;;;0.20;0.20;;;;;;;;;;5021020;28;20504;-64
2021/07/06 11:43:24;;;;;;;0.85;0.30;;;;;;;;;;5021267;28;20033;-63
2021/07/06 11:45:57;;;;;;;0.32;0.30;;;;;;;;;;5026151;28;20380;-64
2021/07/06 11:48:28;;;;;;;0.38;0.30;;;;;;;;;;5026839;28;20029;-64
2021/07/06 11:50:56;;;;;;;0.98;0.40;;;;;;;;;;5018622;28;20032;-64
2021/07/06 11:53:30;;;;;;;0.52;0.38;;;;;;;;;;5024244;28;20032;-64
2021/07/06 11:55:57;;;;;;;1.52;0.68;;;;;;;;;;5025269;28;20033;-64
2021/07/06 11:58:24;;;;;;;0.88;0.30;;;;;;;;;;5020506;28;20109;-64
2021/07/06 12:00:51;;;;;;;1.30;0.30;;;;;;;;;;5020287;28;20088;-64
2021/07/06 12:03:22;;;;;;;0.40;0.32;;;;;;;;;;5023761;28;20036;-63
2021/07/06 12:05:50;;;;;;;1.48;0.35;;;;;;;;;;5017922;28;20041;-64
2021/07/06 12:08:19;;;;;;;1.05;0.50;;;;;;;;;;5024458;28;20033;-64
2021/07/06 12:11:13;;;;;;;0.85;0.30;;;;;;;;;;5021043;28;20021;-64
2021/07/06 12:13:41;;;;;;;0.52;0.40;;;;;;;;;;5017227;28;20037;-64
2021/07/06 12:16:25;;;;;;;0.77;0.38;;;;;;;;;;5020551;28;20087;-63
2021/07/06 12:18:59;;;;;;;0.35;0.35;;;;;;;;;;5018670;28;20435;-64
2021/07/06 12:21:31;;;;;;;0.30;0.30;;;;;;;;;;5009599;28;20108;-64
2021/07/06 12:23:58;;;;;;;1.52;0.35;;;;;;;;;;5018765;28;20512;-64
2021/07/06 12:26:24;;;;;;;0.50;0.40;;;;;;;;;;5023792;28;20410;-63
2021/07/06 12:28:51;;;;;;;1.02;0.40;;;;;;;;;;5019476;28;20148;-65
2021/07/06 12:31:30;;;;;;;0.85;0.40;;;;;;;;;;5014514;28;20037;-64
2021/07/06 12:33:59;;;;;;;0.60;0.30;;;;;;;;;;5020998;28;20081;-64
2021/07/06 12:36:38;;;;;;;2.80;0.57;;;;;;;;;;5018948;28;20026;-64
2021/07/06 12:39:12;;;;;;;0.50;0.50;;;;;;;;;;5021237;28;20089;-63
2021/07/06 12:41:52;;;;;;;0.82;0.52;;;;;;;;;;5022341;28;20033;-63
2021/07/06 12:44:27;;;;;;;1.35;0.60;;;;;;;;;;5020095;28;20130;-64
2021/07/06 12:46:52;;;;;;;1.00;0.50;;;;;;;;;;5023241;28;20018;-64
2021/07/06 12:49:27;;;;;;;0.45;0.45;;;;;;;;;;5020646;28;20038;-64
2021/07/06 12:52:00;;;;;;;2.15;0.80;;;;;;;;;;5020976;28;20476;-64
2021/07/06 12:54:34;;;;;;;1.15;0.70;;;;;;;;;;5016412;28;20083;-64
2021/07/06 12:57:01;;;;;;;1.95;0.82;;;;;;;;;;5017734;28;20041;-63
2021/07/06 12:59:29;;;;;;;0.75;0.50;;;;;;;;;;5023109;28;20033;-63
2021/07/06 13:01:56;;;;;;;1.42;0.70;;;;;;;;;;5018382;28;20520;-63
2021/07/06 13:04:22;;;;;;;1.23;0.57;;;;;;;;;;5018017;28;20037;-64
2021/07/06 13:06:51;;;;;;;3.05;0.70;;;;;;;;;;5019659;28;20447;-64
2021/07/06 13:09:28;;;;;;;1.25;0.90;;;;;;;;;;5014802;28;20030;-63
2021/07/06 13:11:54;;;;;;;1.30;0.77;;;;;;;;;;5013074;28;20030;-63
2021/07/06 13:14:23;;;;;;;4.28;0.68;;;;;;;;;;5013309;28;20033;-63
2021/07/06 13:16:49;;;;;;;0.98;0.80;;;;;;;;;;5027798;28;20492;-63
2021/07/06 13:19:25;;;;;;;3.05;0.68;;;;;;;;;;5014815;28;20029;-64
2021/07/06 13:21:52;;;;;;;1.55;0.65;;;;;;;;;;5014603;28;20038;-64
2021/07/06 13:24:18;;;;;;;1.85;0.70;;;;;;;;;;5017743;28;20045;-63
2021/07/06 13:26:44;;;;;;;1.35;0.60;;;;;;;;;;5016351;28;20504;-64
2021/07/06 13:29:10;;;;;;;0.77;0.70;;;;;;;;;;5017913;28;20029;-64
2021/07/06 13:31:39;;;;;;;0.50;0.50;;;;;;;;;;5014843;28;20053;-64
2021/07/06 13:34:05;;;;;;;1.98;0.75;;;;;;;;;;5012256;28;20034;-64
2021/07/06 13:36:31;;;;;;;2.60;0.50;;;;;;;;;;5020598;28;20069;-63
2021/07/06 13:38:57;;;;;;;3.20;0.70;;;;;;;;;;5021157;28;20119;-64
2021/07/06 13:41:22;;;;;;;1.05;0.73;;;;;;;;;;5014750;28;20025;-64
2021/07/06 13:43:48;;;;;;;2.50;0.90;;;;;;;;;;5015901;28;20025;-63
2021/07/06 13:46:15;;;;;;;2.22;1.05;;;;;;;;;;5015740;28;20470;-64
2021/07/06 13:48:40;;;;;;;11.15;1.00;;;;;;;;;;5014787;28;20485;-64
2021/07/06 13:51:06;;;;;;;2.25;1.00;;;;;;;;;;5018453;28;20037;-64
2021/07/06 13:53:31;;;;;;;0.80;0.70;;;;;;;;;;5014706;28;20045;-64
2021/07/06 13:55:57;;;;;;;1.98;0.90;;;;;;;;;;5014472;28;20035;-64
2021/07/06 13:58:23;;;;;;;1.50;0.88;;;;;;;;;;5017313;28;20467;-64
2021/07/06 14:00:49;;;;;;;5.55;2.10;;;;;;;;;;5015412;28;20079;-64
2021/07/06 14:03:15;;;;;;;2.20;1.10;;;;;;;;;;5012734;28;20042;-65
2021/07/06 14:05:43;;;;;;;2.08;1.08;;;;;;;;;;5018668;28;20021;-65
2021/07/06 14:08:09;;;;;;;2.38;0.93;;;;;;;;;;5020409;28;20388;-64
2021/07/06 14:10:35;;;;;;;1.35;0.80;;;;;;;;;;5019877;28;20040;-62
2021/07/06 14:13:00;;;;;;;1.15;0.80;;;;;;;;;;5013109;28;20022;-62
2021/07/06 14:15:29;;;;;;;1.15;0.80;;;;;;;;;;5018448;28;20025;-63
2021/07/06 14:17:54;;;;;;;1.50;0.70;;;;;;;;;;5014452;28;20026;-63
2021/07/06 14:20:20;;;;;;;1.27;0.50;;;;;;;;;;5019390;28;20044;-63
2021/07/06 14:22:46;;;;;;;0.60;0.43;;;;;;;;;;5025643;28;20031;-63
2021/07/06 14:25:13;;;;;;;2.35;0.43;;;;;;;;;;5011181;28;20583;-64
2021/07/06 14:27:39;;;;;;;0.70;0.30;;;;;;;;;;5016253;28;20483;-64
2021/07/06 14:30:07;;;;;;;0.60;0.40;;;;;;;;;;5022083;28;20034;-64
2021/07/06 14:32:37;;;;;;;0.68;0.45;;;;;;;;;;5018317;28;20041;-64
2021/07/06 14:35:09;;;;;;;1.48;0.60;;;;;;;;;;5019851;28;20484;-64
2021/07/06 14:37:35;;;;;;;1.65;0.60;;;;;;;;;;5019623;28;20112;-64
2021/07/06 14:40:01;;;;;;;0.93;0.50;;;;;;;;;;5015595;28;20033;-63
2021/07/06 14:42:27;;;;;;;2.17;0.70;;;;;;;;;;5019301;28;20040;-63
2021/07/06 14:44:52;;;;;;;2.22;1.02;;;;;;;;;;5014343;28;20068;-63
2021/07/06 14:47:18;;;;;;;2.45;0.68;;;;;;;;;;5024369;28;20076;-63